Time;durP1;ratioP1;P1;durP2;ratioP2;P2;SDS_P1;SDS_P2;PMS_P1;PMS_P2;Temp;Humidity;BMP_temperature;BMP_pressure;BME280_temperature;BME280_humidity;BME280_pressure;Samples;Min_cycle;Max_cycle;Signal;HPM_P1;HPM_P2
2021/12/17 00:00:17;;;;;;;64.63;32.10;;;9.60;99.90;;;;;;5031595;28;20186;-82
2021/12/17 00:05:44;;;;;;;57.45;31.95;;;9.60;99.90;;;;;;5032353;28;20181;-81
2021/12/17 00:08:09;;;;;;;59.75;30.92;;;9.60;99.90;;;;;;5032007;28;20165;-81
2021/12/17 00:10:35;;;;;;;65.87;33.43;;;9.60;99.90;;;;;;5032581;28;20280;-81
2021/12/17 00:13:02;;;;;;;57.35;29.63;;;9.60;99.90;;;;;;5035501;28;20185;-84
2021/12/17 00:15:28;;;;;;;65.88;30.80;;;9.60;99.90;;;;;;5035505;28;20650;-80
2021/12/17 00:18:00;;;;;;;60.77;33.00;;;9.60;99.90;;;;;;5036574;28;20197;-81
2021/12/17 00:40:08;;;;;;;60.67;31.02;;;9.60;99.90;;;;;;5036363;28;20224;-83
2021/12/17 00:53:20;;;;;;;59.13;30.30;;;9.50;99.90;;;;;;5034994;28;20175;-83
2021/12/17 00:55:46;;;;;;;62.83;30.80;;;9.50;99.90;;;;;;5035968;28;20178;-82
2021/12/17 00:58:12;;;;;;;62.97;31.67;;;9.50;99.90;;;;;;5034804;28;20575;-83
2021/12/17 01:00:38;;;;;;;54.07;30.00;;;9.50;99.90;;;;;;5034377;28;20429;-82
2021/12/17 01:03:04;;;;;;;51.47;27.90;;;9.50;99.90;;;;;;5034804;28;20232;-84
2021/12/17 01:05:31;;;;;;;62.63;28.90;;;9.50;99.90;;;;;;5035900;28;20178;-83
2021/12/17 01:07:59;;;;;;;50.65;28.13;;;9.60;99.90;;;;;;5034639;28;20507;-83
2021/12/17 01:10:27;;;;;;;58.95;31.05;;;9.50;99.90;;;;;;5034374;28;20288;-83
2021/12/17 01:12:53;;;;;;;53.17;28.75;;;9.60;99.90;;;;;;5035754;28;20197;-83
2021/12/17 01:15:19;;;;;;;62.13;29.60;;;9.50;99.90;;;;;;5034541;28;20183;-83
2021/12/17 01:17:49;;;;;;;55.65;28.90;;;9.60;99.90;;;;;;5034417;28;20198;-84
2021/12/17 01:23:14;;;;;;;56.20;28.88;;;9.60;99.90;;;;;;5035217;28;20236;-84
2021/12/17 01:35:19;;;;;;;51.10;28.83;;;9.60;99.90;;;;;;5034229;28;20594;-84
2021/12/17 01:36:36;;;;;;;49.08;29.55;;;9.50;99.90;;;;;;5035523;28;20588;-83
2021/12/17 01:42:04;;;;;;;60.67;30.27;;;9.40;99.90;;;;;;5035292;28;20471;-83
2021/12/17 01:44:34;;;;;;;59.30;30.42;;;9.40;99.90;;;;;;5035123;28;20161;-83
2021/12/17 01:47:01;;;;;;;63.70;30.25;;;9.40;99.90;;;;;;5034957;28;20198;-84
2021/12/17 02:00:08;;;;;;;50.70;30.05;;;9.40;99.90;;;;;;5034933;28;20559;-83
2021/12/17 02:02:42;;;;;;;54.33;31.52;;;9.30;99.90;;;;;;5034917;28;20190;-83
2021/12/17 02:05:08;;;;;;;57.92;31.80;;;9.30;99.90;;;;;;5034950;28;20183;-83
2021/12/17 02:07:34;;;;;;;60.80;30.75;;;9.30;99.90;;;;;;5034842;28;20196;-83
2021/12/17 02:13:00;;;;;;;63.23;32.47;;;9.30;99.90;;;;;;5034694;28;20185;-84
2021/12/17 02:28:47;;;;;;;61.38;31.35;;;9.30;99.90;;;;;;4990359;28;20666;-83
2021/12/17 02:31:34;;;;;;;64.15;32.03;;;9.30;99.90;;;;;;5032812;28;20208;-83
2021/12/17 02:34:10;;;;;;;67.30;33.58;;;9.40;99.90;;;;;;5032219;28;20197;-83
2021/12/17 02:36:39;;;;;;;59.03;31.42;;;8.70;99.90;;;;;;5033723;28;20222;-83
2021/12/17 02:39:35;;;;;;;64.85;32.72;;;9.40;99.90;;;;;;5034001;28;20194;-84
2021/12/17 02:47:18;;;;;;;62.17;31.98;;;9.30;99.90;;;;;;5034401;28;20594;-83
2021/12/17 02:49:45;;;;;;;52.53;30.47;;;9.40;99.90;;;;;;5033656;28;20268;-84
2021/12/17 02:52:12;;;;;;;63.65;32.60;;;9.40;99.90;;;;;;5032599;28;20206;-84
2021/12/17 02:54:38;;;;;;;55.72;30.13;;;9.30;99.90;;;;;;5032655;28;20533;-83
2021/12/17 02:57:07;;;;;;;62.30;31.87;;;9.40;99.90;;;;;;5032797;28;20208;-83
2021/12/17 02:59:34;;;;;;;58.60;29.83;;;9.40;99.90;;;;;;5033581;28;20194;-84
2021/12/17 03:02:01;;;;;;;50.13;29.02;;;9.30;99.90;;;;;;5033588;28;20313;-84
2021/12/17 03:04:28;;;;;;;50.78;27.67;;;9.40;99.90;;;;;;5032399;28;20182;-83
2021/12/17 03:06:55;;;;;;;47.08;26.98;;;9.40;99.90;;;;;;5032556;28;20574;-83
2021/12/17 03:09:43;;;;;;;47.55;28.95;;;9.40;99.90;;;;;;5032176;28;20178;-84
2021/12/17 03:12:16;;;;;;;43.25;26.42;;;9.40;99.90;;;;;;5032308;28;20221;-84
2021/12/17 03:14:49;;;;;;;48.80;28.20;;;9.30;99.90;;;;;;5032608;28;20245;-83
2021/12/17 03:17:27;;;;;;;56.60;28.83;;;9.30;99.90;;;;;;5017027;28;20189;-83
2021/12/17 03:25:06;;;;;;;46.85;25.73;;;9.50;99.90;;;;;;5033605;28;20208;-83
2021/12/17 03:27:32;;;;;;;43.75;25.35;;;9.50;99.90;;;;;;5034398;28;20262;-83
2021/12/17 03:29:58;;;;;;;46.30;24.03;;;9.50;99.90;;;;;;5017844;28;20218;-83
2021/12/17 03:32:23;;;;;;;43.97;25.33;;;9.40;99.90;;;;;;5041420;28;20449;-82
2021/12/17 03:34:50;;;;;;;42.73;24.43;;;9.50;99.90;;;;;;5032399;28;20563;-82
2021/12/17 03:37:16;;;;;;;43.67;24.50;;;9.40;99.90;;;;;;5032227;28;20189;-82
2021/12/17 03:39:42;;;;;;;40.40;23.60;;;9.40;99.90;;;;;;5033022;28;20214;-82
2021/12/17 03:42:22;;;;;;;46.47;25.40;;;9.40;99.90;;;;;;5033401;28;20198;-83
2021/12/17 03:44:48;;;;;;;42.50;24.45;;;9.40;99.90;;;;;;5032024;28;20423;-82
2021/12/17 03:47:14;;;;;;;37.80;23.20;;;9.40;99.90;;;;;;5034927;28;20575;-82
2021/12/17 03:49:41;;;;;;;40.33;24.53;;;9.40;99.90;;;;;;5035860;28;20181;-83
2021/12/17 03:52:06;;;;;;;38.85;23.20;;;9.40;99.90;;;;;;5037238;28;20658;-83
2021/12/17 03:54:33;;;;;;;38.77;22.87;;;9.40;99.90;;;;;;5037283;28;20178;-83
2021/12/17 03:56:59;;;;;;;42.65;22.50;;;9.30;99.90;;;;;;5035976;28;20207;-83
2021/12/17 03:59:25;;;;;;;45.78;23.30;;;9.40;99.90;;;;;;5035852;28;20229;-83
2021/12/17 04:01:51;;;;;;;45.37;23.37;;;9.30;99.90;;;;;;5037006;28;20201;-83
2021/12/17 04:04:16;;;;;;;39.83;22.20;;;9.30;99.90;;;;;;5019387;28;20182;-83
2021/12/17 04:06:42;;;;;;;37.73;21.97;;;9.30;99.90;;;;;;5036915;28;20184;-83
2021/12/17 04:09:08;;;;;;;41.97;23.60;;;9.40;99.90;;;;;;5037068;28;20594;-83
2021/12/17 04:11:34;;;;;;;39.53;22.88;;;9.40;99.90;;;;;;5035402;28;20193;-82
2021/12/17 04:14:00;;;;;;;40.70;22.77;;;9.30;99.90;;;;;;5036847;28;20528;-83
2021/12/17 04:16:30;;;;;;;35.70;22.88;;;9.40;99.90;;;;;;5019144;28;20424;-83
2021/12/17 04:18:57;;;;;;;40.05;23.83;;;9.40;99.90;;;;;;5035399;28;20214;-83
2021/12/17 04:21:23;;;;;;;39.67;22.50;;;9.40;99.90;;;;;;5035013;28;20198;-83
2021/12/17 04:23:50;;;;;;;34.27;20.27;;;9.30;99.90;;;;;;5035550;28;20577;-83
2021/12/17 04:26:17;;;;;;;42.83;23.33;;;9.30;99.90;;;;;;5036615;28;20428;-83
2021/12/17 04:28:47;;;;;;;45.38;24.98;;;9.40;99.90;;;;;;5035417;28;20198;-84
2021/12/17 04:31:14;;;;;;;37.30;21.13;;;9.40;99.90;;;;;;5035009;28;20664;-84
2021/12/17 04:33:41;;;;;;;42.42;23.85;;;9.40;99.90;;;;;;5035183;28;20186;-83
2021/12/17 04:36:09;;;;;;;38.40;21.85;;;9.30;99.90;;;;;;5035109;28;20185;-84
2021/12/17 04:38:35;;;;;;;35.08;21.95;;;9.30;99.90;;;;;;5036449;28;20206;-83
2021/12/17 04:41:36;;;;;;;45.73;23.13;;;9.30;99.90;;;;;;5034763;28;20695;-83
2021/12/17 04:46:50;;;;;;;39.40;22.10;;;9.40;99.90;;;;;;5036382;28;20197;-83
2021/12/17 04:57:26;;;;;;;38.33;21.50;;;9.40;99.90;;;;;;5035942;28;20224;-84
2021/12/17 04:59:52;;;;;;;42.10;22.13;;;9.30;99.90;;;;;;5035602;28;20578;-84
2021/12/17 05:02:18;;;;;;;36.97;22.17;;;9.30;99.90;;;;;;5035793;28;20204;-84
2021/12/17 05:04:44;;;;;;;41.58;22.98;;;9.30;99.90;;;;;;5034861;28;20202;-84
2021/12/17 05:07:13;;;;;;;42.15;24.52;;;9.30;99.90;;;;;;5035801;28;20183;-84
2021/12/17 05:09:49;;;;;;;42.92;21.98;;;9.30;99.90;;;;;;5034310;28;20677;-83
2021/12/17 05:23:06;;;;;;;39.80;21.15;;;9.20;99.90;;;;;;5035857;28;20178;-83
2021/12/17 05:25:32;;;;;;;36.27;19.50;;;9.10;99.90;;;;;;5034240;28;20178;-84
2021/12/17 05:28:01;;;;;;;34.27;18.90;;;9.10;99.90;;;;;;5034346;28;20571;-84
2021/12/17 05:30:28;;;;;;;37.10;19.35;;;9.10;99.90;;;;;;5034233;28;20182;-83
2021/12/17 05:32:55;;;;;;;38.35;20.38;;;9.20;99.90;;;;;;5035432;28;20205;-83
2021/12/17 05:35:20;;;;;;;35.35;19.42;;;9.20;99.90;;;;;;5034240;28;20627;-84
2021/12/17 05:37:46;;;;;;;28.00;17.43;;;9.20;99.90;;;;;;5035208;28;20239;-84
2021/12/17 05:40:12;;;;;;;30.73;17.87;;;9.20;99.90;;;;;;5034748;28;20662;-83
2021/12/17 05:42:40;;;;;;;33.80;16.83;;;9.10;99.90;;;;;;5034159;28;20638;-83
2021/12/17 05:48:09;;;;;;;35.70;19.75;;;9.20;99.90;;;;;;4954961;29;20189;-83
2021/12/17 05:50:37;;;;;;;29.67;17.55;;;9.10;99.90;;;;;;5014097;28;20206;-83
2021/12/17 05:53:03;;;;;;;27.25;16.10;;;9.10;99.90;;;;;;5035037;28;20580;-84
2021/12/17 05:55:29;;;;;;;32.20;17.73;;;9.10;99.90;;;;;;5033651;28;20179;-83
2021/12/17 05:57:54;;;;;;;29.20;16.07;;;9.10;99.90;;;;;;5034779;28;20184;-83
2021/12/17 06:00:21;;;;;;;25.80;17.43;;;9.10;99.90;;;;;;5033392;28;20693;-83
2021/12/17 06:02:47;;;;;;;29.90;17.27;;;9.10;99.90;;;;;;5033415;28;20186;-83
2021/12/17 06:05:13;;;;;;;35.92;18.08;;;9.10;99.90;;;;;;5034829;28;20182;-83
2021/12/17 06:07:39;;;;;;;33.17;18.50;;;9.10;99.90;;;;;;5033513;28;20193;-83
2021/12/17 06:10:06;;;;;;;31.33;16.77;;;9.20;99.90;;;;;;5032993;28;20179;-84
2021/12/17 06:12:32;;;;;;;31.35;18.08;;;9.20;99.90;;;;;;5034666;28;20257;-83
2021/12/17 06:14:58;;;;;;;30.42;16.58;;;9.20;99.90;;;;;;5034539;28;20561;-83
2021/12/17 06:17:23;;;;;;;31.43;17.40;;;9.20;99.90;;;;;;5034754;28;20182;-83
2021/12/17 06:19:49;;;;;;;32.17;17.77;;;9.20;99.90;;;;;;5034165;28;20289;-84
2021/12/17 06:22:15;;;;;;;32.40;17.80;;;9.20;99.90;;;;;;5034304;28;20440;-83
2021/12/17 06:24:44;;;;;;;34.80;19.92;;;9.20;99.90;;;;;;5033026;28;20642;-83
2021/12/17 06:27:15;;;;;;;35.90;17.90;;;9.20;99.90;;;;;;5034446;28;20189;-83
2021/12/17 06:29:41;;;;;;;31.70;17.67;;;9.10;99.90;;;;;;5033770;28;20174;-85
2021/12/17 06:32:08;;;;;;;30.75;17.88;;;9.10;99.90;;;;;;5033104;28;20584;-83
2021/12/17 06:34:34;;;;;;;31.67;19.52;;;9.10;99.90;;;;;;5034200;28;20569;-83
2021/12/17 06:36:59;;;;;;;30.02;16.42;;;9.10;99.90;;;;;;5032960;28;20288;-83
2021/12/17 06:39:25;;;;;;;29.10;17.30;;;9.00;99.90;;;;;;5033787;28;20352;-83
2021/12/17 06:41:51;;;;;;;32.77;18.10;;;9.10;99.90;;;;;;5033977;28;20281;-83
2021/12/17 06:44:22;;;;;;;28.80;16.57;;;9.00;99.90;;;;;;5032980;28;20188;-83
2021/12/17 06:49:30;;;;;;;33.83;18.00;;;9.10;99.90;;;;;;5033967;28;20264;-83
2021/12/17 07:00:13;;;;;;;32.65;16.85;;;9.00;99.90;;;;;;5033478;28;20471;-84
2021/12/17 07:09:09;;;;;;;41.85;17.17;;;9.10;99.90;;;;;;5032950;28;20185;-83
2021/12/17 07:11:01;;;;;;;31.42;18.95;;;9.10;99.90;;;;;;5032079;28;20744;-83
2021/12/17 07:19:33;;;;;;;29.27;16.30;;;9.10;99.90;;;;;;5033750;28;20248;-83
2021/12/17 07:21:52;;;;;;;32.78;18.10;;;9.00;99.90;;;;;;5032549;28;20229;-83
2021/12/17 07:24:50;;;;;;;33.28;18.60;;;9.00;99.90;;;;;;5032251;28;20172;-83
2021/12/17 07:32:52;;;;;;;37.78;19.67;;;9.00;99.90;;;;;;5033565;28;20197;-83
2021/12/17 07:40:32;;;;;;;31.73;18.73;;;9.00;99.90;;;;;;5033458;28;20756;-83
2021/12/17 07:43:01;;;;;;;35.70;18.45;;;9.00;99.90;;;;;;5032252;28;20197;-83
2021/12/17 07:45:27;;;;;;;32.38;18.63;;;8.90;99.90;;;;;;5033240;28;20195;-83
2021/12/17 07:47:52;;;;;;;33.63;18.37;;;8.90;99.90;;;;;;5015632;28;20183;-83
2021/12/17 07:50:18;;;;;;;36.30;18.73;;;8.90;99.90;;;;;;5031666;28;20209;-83
2021/12/17 07:52:44;;;;;;;33.17;17.83;;;9.00;99.90;;;;;;5033315;28;20178;-83
2021/12/17 07:55:10;;;;;;;29.50;15.57;;;8.90;99.90;;;;;;5033311;28;20182;-83
2021/12/17 07:57:35;;;;;;;31.90;16.87;;;8.80;99.90;;;;;;5033194;28;20166;-84
2021/12/17 08:00:01;;;;;;;30.83;17.50;;;8.90;99.90;;;;;;5031523;28;20206;-83
2021/12/17 08:02:26;;;;;;;31.27;17.70;;;8.90;99.90;;;;;;5033290;28;20174;-84
2021/12/17 08:04:52;;;;;;;33.73;17.60;;;8.90;99.90;;;;;;5031736;28;20185;-83
2021/12/17 08:07:18;;;;;;;32.43;18.80;;;9.00;99.90;;;;;;5033134;28;20591;-83
2021/12/17 08:09:44;;;;;;;31.57;18.50;;;8.90;99.90;;;;;;5032711;28;20267;-83
2021/12/17 08:12:10;;;;;;;34.22;17.73;;;9.00;99.90;;;;;;5031541;28;20202;-83
2021/12/17 08:14:36;;;;;;;29.10;17.60;;;9.00;99.90;;;;;;5032867;28;20189;-82
2021/12/17 08:17:17;;;;;;;36.47;19.23;;;9.00;99.90;;;;;;5031572;28;20654;-82
2021/12/17 08:28:03;;;;;;;33.45;19.85;;;9.10;99.90;;;;;;5032169;28;20189;-83
2021/12/17 08:30:37;;;;;;;37.53;19.55;;;9.10;99.90;;;;;;5031085;28;20315;-84
2021/12/17 08:33:05;;;;;;;32.95;19.27;;;9.10;99.90;;;;;;5033627;28;20581;-83
2021/12/17 08:35:31;;;;;;;31.88;19.70;;;9.10;99.90;;;;;;5035173;28;20261;-83
2021/12/17 08:37:57;;;;;;;32.90;20.20;;;9.10;99.90;;;;;;5036372;28;20260;-82
2021/12/17 08:40:26;;;;;;;28.60;18.07;;;9.10;99.90;;;;;;5035918;28;20292;-82
2021/12/17 08:42:53;;;;;;;30.48;19.42;;;9.10;99.90;;;;;;5036299;28;20170;-83
2021/12/17 08:45:19;;;;;;;25.52;17.45;;;9.10;99.90;;;;;;5036328;28;20560;-83
2021/12/17 08:47:45;;;;;;;29.07;18.17;;;9.10;99.90;;;;;;5036401;28;20228;-82
2021/12/17 08:50:12;;;;;;;30.47;18.63;;;9.10;99.90;;;;;;5035888;28;20580;-83
2021/12/17 08:52:38;;;;;;;29.88;18.75;;;9.10;99.90;;;;;;5035911;28;20178;-82
2021/12/17 08:55:05;;;;;;;31.90;18.45;;;9.10;99.90;;;;;;5035993;28;20178;-82
2021/12/17 08:57:31;;;;;;;28.95;18.65;;;9.10;99.90;;;;;;5036151;28;20201;-82
2021/12/17 08:59:57;;;;;;;36.23;21.57;;;9.20;99.90;;;;;;5035832;28;20205;-83
2021/12/17 09:02:24;;;;;;;28.55;17.85;;;9.20;99.90;;;;;;5035785;28;20804;-82
2021/12/17 09:04:50;;;;;;;26.73;17.60;;;9.10;99.90;;;;;;5035895;28;20178;-83
2021/12/17 09:07:16;;;;;;;29.40;17.75;;;9.10;99.90;;;;;;5036038;28;20170;-82
2021/12/17 09:09:44;;;;;;;29.53;18.40;;;9.20;99.90;;;;;;5035590;28;20650;-83
2021/12/17 09:12:10;;;;;;;26.58;18.10;;;9.10;99.90;;;;;;5035766;28;20288;-82
2021/12/17 09:14:36;;;;;;;36.50;20.35;;;9.20;99.90;;;;;;5035658;28;20186;-83
2021/12/17 09:17:02;;;;;;;27.50;17.90;;;9.20;99.90;;;;;;5035678;28;20185;-82
2021/12/17 09:19:28;;;;;;;34.15;19.05;;;9.10;99.90;;;;;;5035235;28;20233;-82
2021/12/17 09:21:53;;;;;;;34.00;21.50;;;9.10;99.90;;;;;;5034292;28;20237;-82
2021/12/17 09:24:19;;;;;;;33.47;20.20;;;9.20;99.90;;;;;;5035682;28;20263;-83
2021/12/17 09:26:45;;;;;;;32.00;18.27;;;9.20;99.90;;;;;;5035524;28;20189;-82
2021/12/17 09:29:11;;;;;;;28.70;17.77;;;9.10;99.90;;;;;;5035162;28;20427;-84
2021/12/17 09:31:37;;;;;;;38.30;20.63;;;9.20;99.90;;;;;;5034247;28;20202;-84
2021/12/17 09:34:03;;;;;;;33.27;21.00;;;9.20;99.90;;;;;;5035426;28;20182;-82
2021/12/17 09:36:28;;;;;;;37.58;19.73;;;9.20;99.90;;;;;;5034117;28;20434;-82
2021/12/17 09:38:54;;;;;;;30.07;19.40;;;9.20;99.90;;;;;;5034222;28;20206;-83
2021/12/17 09:41:22;;;;;;;35.57;20.30;;;9.30;99.90;;;;;;5033735;28;20634;-82
2021/12/17 09:43:48;;;;;;;34.42;19.25;;;9.20;99.90;;;;;;5033610;28;20178;-82
2021/12/17 09:46:16;;;;;;;30.77;18.08;;;9.30;99.90;;;;;;5035235;28;20240;-82
2021/12/17 09:48:46;;;;;;;35.70;21.00;;;9.20;99.90;;;;;;5035187;28;20591;-83
2021/12/17 09:51:12;;;;;;;39.90;20.92;;;9.20;99.90;;;;;;5034624;28;20281;-82
2021/12/17 09:53:38;;;;;;;30.23;17.67;;;9.20;99.90;;;;;;5035105;28;20384;-83
2021/12/17 09:56:04;;;;;;;29.80;18.67;;;9.10;99.90;;;;;;5033958;28;20300;-83
2021/12/17 09:58:30;;;;;;;31.08;19.73;;;9.10;99.90;;;;;;5033721;28;20670;-82
2021/12/17 10:00:56;;;;;;;29.77;19.20;;;9.00;99.90;;;;;;5036599;28;20197;-81
2021/12/17 10:03:22;;;;;;;29.67;19.20;;;8.90;99.90;;;;;;5034859;28;20657;-82
2021/12/17 10:05:48;;;;;;;33.50;17.20;;;8.90;99.90;;;;;;5034681;28;20413;-81
2021/12/17 10:08:19;;;;;;;32.90;19.27;;;8.80;99.90;;;;;;5034690;28;20232;-81
2021/12/17 10:11:02;;;;;;;33.25;19.60;;;8.80;99.90;;;;;;5034400;28;20194;-81
2021/12/17 10:13:33;;;;;;;34.10;20.75;;;8.80;99.90;;;;;;5034708;28;20177;-81
2021/12/17 10:16:01;;;;;;;33.30;20.20;;;8.80;99.90;;;;;;5034512;28;20569;-81
2021/12/17 10:18:31;;;;;;;34.15;21.52;;;8.80;99.90;;;;;;5034371;28;20224;-82
2021/12/17 10:20:59;;;;;;;38.72;22.67;;;8.80;99.90;;;;;;5034082;28;20283;-82
2021/12/17 10:23:28;;;;;;;39.78;21.35;;;8.90;99.90;;;;;;5034397;28;20170;-81
2021/12/17 10:25:54;;;;;;;39.28;22.15;;;8.80;99.90;;;;;;5034336;28;20174;-82
2021/12/17 10:28:20;;;;;;;42.08;21.42;;;8.90;99.90;;;;;;5034401;28;20256;-81
2021/12/17 10:30:50;;;;;;;40.65;22.08;;;8.90;99.90;;;;;;5033806;28;20197;-81
2021/12/17 10:33:19;;;;;;;44.97;23.98;;;8.80;99.90;;;;;;5034156;28;20236;-81
2021/12/17 10:35:48;;;;;;;45.70;24.42;;;8.90;99.90;;;;;;5034037;28;20619;-82
2021/12/17 10:38:17;;;;;;;45.15;24.35;;;8.90;99.90;;;;;;5032963;28;20220;-82
2021/12/17 10:40:49;;;;;;;53.45;24.85;;;8.90;99.90;;;;;;5033818;28;20590;-81
2021/12/17 10:46:09;;;;;;;45.45;24.77;;;9.00;99.90;;;;;;5034023;28;20190;-82
2021/12/17 10:51:31;;;;;;;44.38;23.77;;;8.90;99.90;;;;;;5033799;28;20203;-81
2021/12/17 10:54:05;;;;;;;45.97;25.05;;;8.90;99.90;;;;;;5033902;28;20542;-81
2021/12/17 10:56:36;;;;;;;42.03;22.83;;;8.90;99.90;;;;;;5033876;28;20173;-81
2021/12/17 10:59:09;;;;;;;42.25;24.05;;;8.80;99.90;;;;;;5034718;28;20198;-82
2021/12/17 11:01:40;;;;;;;41.47;19.98;;;8.90;99.90;;;;;;5034211;28;20244;-82
2021/12/17 11:04:22;;;;;;;39.40;21.45;;;8.80;99.90;;;;;;5033799;28;20184;-81
2021/12/17 11:06:52;;;;;;;42.58;21.65;;;8.90;99.90;;;;;;5033973;28;20201;-82
2021/12/17 11:09:50;;;;;;;45.72;25.38;;;8.90;99.90;;;;;;5033374;28;20170;-81
2021/12/17 11:12:38;;;;;;;49.22;23.35;;;8.90;99.90;;;;;;5033675;28;20194;-81
2021/12/17 11:15:36;;;;;;;37.58;19.80;;;8.90;99.90;;;;;;5033727;28;20634;-81
2021/12/17 11:18:04;;;;;;;38.55;22.50;;;8.90;99.90;;;;;;4989302;28;20190;-82
2021/12/17 11:20:33;;;;;;;42.20;23.27;;;8.80;99.90;;;;;;5032071;28;20308;-81
2021/12/17 11:23:04;;;;;;;46.50;23.55;;;8.80;99.90;;;;;;5033358;28;20545;-81
2021/12/17 11:25:30;;;;;;;54.00;26.65;;;8.90;99.90;;;;;;5033527;28;20244;-81
2021/12/17 11:27:56;;;;;;;50.33;25.73;;;8.80;99.90;;;;;;5033218;28;20177;-81
2021/12/17 11:30:26;;;;;;;49.30;27.13;;;8.80;99.90;;;;;;5031615;28;20210;-82
2021/12/17 11:32:53;;;;;;;41.20;22.35;;;8.70;99.90;;;;;;5032099;28;20260;-82
2021/12/17 11:35:23;;;;;;;51.35;25.95;;;8.80;99.90;;;;;;5033389;28;20174;-82
2021/12/17 11:37:51;;;;;;;46.10;24.60;;;8.90;99.90;;;;;;5033092;28;20518;-82
2021/12/17 11:40:25;;;;;;;56.20;25.50;;;8.90;99.90;;;;;;5032575;28;20200;-82
2021/12/17 11:43:15;;;;;;;43.22;24.52;;;8.90;99.90;;;;;;5031968;28;20638;-82
2021/12/17 11:45:43;;;;;;;48.55;24.90;;;8.90;99.90;;;;;;5033077;28;20193;-82
2021/12/17 11:48:12;;;;;;;50.67;26.20;;;9.00;99.90;;;;;;5033239;28;20586;-82
2021/12/17 11:50:37;;;;;;;54.08;25.95;;;8.90;99.90;;;;;;5032663;28;20192;-82
2021/12/17 11:53:19;;;;;;;48.10;25.77;;;8.90;99.90;;;;;;5033451;28;20637;-81
2021/12/17 11:55:48;;;;;;;47.70;24.67;;;8.90;99.90;;;;;;5033308;28;20178;-82
2021/12/17 11:58:34;;;;;;;45.25;22.33;;;8.90;99.90;;;;;;5033335;28;20598;-82
2021/12/17 12:01:00;;;;;;;46.47;25.40;;;8.80;99.90;;;;;;5032504;28;20212;-82
2021/12/17 12:03:25;;;;;;;44.50;23.83;;;8.90;99.90;;;;;;5033195;28;20186;-82
2021/12/17 12:05:53;;;;;;;45.23;25.67;;;8.90;99.90;;;;;;5032963;28;20185;-83
2021/12/17 12:08:50;;;;;;;40.53;23.40;;;8.90;99.90;;;;;;5035623;28;20177;-82
2021/12/17 12:11:22;;;;;;;43.72;23.33;;;8.90;99.90;;;;;;5036625;28;20190;-82
2021/12/17 12:13:51;;;;;;;41.65;22.35;;;9.00;99.90;;;;;;5036931;28;20167;-82
2021/12/17 12:16:20;;;;;;;50.78;23.73;;;9.00;99.90;;;;;;5036881;28;20217;-82
2021/12/17 12:18:54;;;;;;;42.03;21.95;;;8.90;99.90;;;;;;5036920;28;20202;-83
2021/12/17 12:21:25;;;;;;;50.40;25.17;;;9.00;99.90;;;;;;5036502;28;20560;-82
2021/12/17 12:23:57;;;;;;;43.70;22.38;;;9.10;99.90;;;;;;5035605;28;20631;-83
2021/12/17 12:26:28;;;;;;;50.35;23.60;;;8.90;99.90;;;;;;5035299;28;20189;-83
2021/12/17 12:29:05;;;;;;;53.22;24.30;;;8.90;99.90;;;;;;5036553;28;20184;-83
2021/12/17 12:31:33;;;;;;;41.58;24.27;;;8.90;99.90;;;;;;5035138;28;20287;-82
2021/12/17 12:34:08;;;;;;;48.38;24.10;;;8.90;99.90;;;;;;5036491;28;20192;-83
2021/12/17 12:36:56;;;;;;;48.78;22.30;;;8.90;99.90;;;;;;5036249;28;20171;-82
2021/12/17 12:39:42;;;;;;;44.90;23.10;;;9.00;99.90;;;;;;5036093;28;20197;-82
2021/12/17 12:42:24;;;;;;;53.30;26.08;;;9.00;99.90;;;;;;5036405;28;20201;-83
2021/12/17 12:44:49;;;;;;;48.28;22.33;;;8.90;99.90;;;;;;5036388;28;20159;-83
2021/12/17 12:47:25;;;;;;;53.40;22.37;;;9.00;99.90;;;;;;5036067;28;20204;-82
2021/12/17 12:50:11;;;;;;;55.10;24.30;;;9.00;99.90;;;;;;5035794;28;20535;-83
2021/12/17 12:52:46;;;;;;;54.00;23.10;;;9.00;99.90;;;;;;5036258;28;20157;-83
2021/12/17 12:55:28;;;;;;;55.20;24.98;;;8.90;99.90;;;;;;5035084;28;20174;-83
2021/12/17 12:58:03;;;;;;;62.70;25.20;;;8.90;99.90;;;;;;5037128;28;20186;-82
2021/12/17 13:00:37;;;;;;;69.30;23.88;;;8.90;99.90;;;;;;5036978;28;20580;-83
2021/12/17 13:03:15;;;;;;;60.85;24.23;;;8.90;99.90;;;;;;5036952;28;20230;-83
2021/12/17 13:05:42;;;;;;;68.90;25.60;;;8.90;99.90;;;;;;5036788;28;20158;-82
2021/12/17 13:08:12;;;;;;;57.40;24.00;;;8.90;99.90;;;;;;5036136;28;20178;-83
2021/12/17 13:10:49;;;;;;;69.25;25.25;;;8.90;99.90;;;;;;5035658;28;20200;-82
2021/12/17 13:23:57;;;;;;;70.35;28.40;;;8.90;99.90;;;;;;5035553;28;20265;-82
2021/12/17 13:26:25;;;;;;;62.88;26.67;;;8.90;99.90;;;;;;5035540;28;20185;-82
2021/12/17 13:29:14;;;;;;;59.00;27.70;;;8.90;99.90;;;;;;5034224;28;20241;-82
2021/12/17 13:31:42;;;;;;;66.15;25.55;;;8.80;99.90;;;;;;5034144;28;20198;-82
2021/12/17 13:34:18;;;;;;;72.30;26.08;;;9.00;99.90;;;;;;5035385;28;20542;-82
2021/12/17 13:37:06;;;;;;;64.65;25.85;;;8.90;99.90;;;;;;5035265;28;20181;-83
2021/12/17 13:39:44;;;;;;;53.67;23.48;;;8.90;99.90;;;;;;5021085;28;20225;-82
2021/12/17 13:42:33;;;;;;;54.13;25.70;;;8.90;99.90;;;;;;5034006;28;20735;-82
2021/12/17 13:45:01;;;;;;;64.18;25.25;;;8.90;99.90;;;;;;5033994;28;20174;-82
2021/12/17 13:47:27;;;;;;;57.83;24.50;;;9.00;99.90;;;;;;5035342;28;20178;-82
2021/12/17 13:50:07;;;;;;;65.83;24.77;;;9.00;99.90;;;;;;5034837;28;20233;-82
2021/12/17 13:52:37;;;;;;;61.47;26.42;;;9.00;99.90;;;;;;5033682;28;20207;-82
2021/12/17 13:55:06;;;;;;;67.47;23.60;;;9.10;99.90;;;;;;5033766;28;20223;-82
2021/12/17 13:57:33;;;;;;;53.75;24.10;;;9.00;99.90;;;;;;5034901;28;20178;-83
2021/12/17 14:00:10;;;;;;;63.42;25.77;;;9.00;99.90;;;;;;5033294;28;20214;-83
2021/12/17 14:02:36;;;;;;;65.32;25.75;;;8.90;99.90;;;;;;5033576;28;20158;-83
2021/12/17 14:05:11;;;;;;;65.50;25.30;;;8.90;99.90;;;;;;5035196;28;20201;-83
2021/12/17 14:07:39;;;;;;;59.40;25.70;;;8.90;99.90;;;;;;5035126;28;20474;-82
2021/12/17 14:10:09;;;;;;;61.70;25.00;;;8.80;99.90;;;;;;5034722;28;20182;-82
2021/12/17 14:12:41;;;;;;;59.00;23.27;;;8.90;99.90;;;;;;5034785;28;20166;-82
2021/12/17 14:15:10;;;;;;;57.85;24.42;;;8.90;99.90;;;;;;5034599;28;20258;-82
2021/12/17 14:17:46;;;;;;;68.80;25.77;;;8.90;99.90;;;;;;5034703;28;20212;-83
2021/12/17 14:20:23;;;;;;;64.55;25.80;;;8.90;99.90;;;;;;5034188;28;20216;-82
2021/12/17 14:22:55;;;;;;;58.95;25.02;;;8.80;99.90;;;;;;5034549;28;20192;-82
2021/12/17 14:25:24;;;;;;;62.22;23.75;;;8.90;99.90;;;;;;5034445;28;20169;-82
2021/12/17 14:27:52;;;;;;;60.33;25.27;;;9.00;99.90;;;;;;5033130;28;20181;-83
2021/12/17 14:30:33;;;;;;;57.58;23.67;;;9.10;99.90;;;;;;5032779;28;20189;-83
2021/12/17 14:33:05;;;;;;;59.88;23.55;;;9.10;99.90;;;;;;5034435;28;20184;-83
2021/12/17 14:35:58;;;;;;;53.35;22.90;;;9.20;99.90;;;;;;5034441;28;20178;-83
2021/12/17 14:38:33;;;;;;;60.08;23.35;;;9.10;99.90;;;;;;5034004;28;20580;-82
2021/12/17 14:41:01;;;;;;;54.55;22.08;;;9.30;99.90;;;;;;5033861;28;20284;-83
2021/12/17 14:43:37;;;;;;;51.60;22.80;;;9.20;99.90;;;;;;5034071;28;20174;-83
2021/12/17 14:46:21;;;;;;;41.42;20.30;;;9.20;99.90;;;;;;5034330;28;20189;-82
2021/12/17 14:49:17;;;;;;;31.73;16.17;;;9.20;99.90;;;;;;5034373;28;20218;-83
2021/12/17 14:57:23;;;;;;;24.45;13.45;;;9.40;99.90;;;;;;5034382;28;20683;-83
2021/12/17 15:02:43;;;;;;;22.00;13.52;;;9.40;99.90;;;;;;5034540;28;20177;-82
2021/12/17 15:05:09;;;;;;;25.67;12.73;;;9.40;99.90;;;;;;5033591;28;20188;-83
2021/12/17 15:07:36;;;;;;;20.15;12.80;;;9.30;99.90;;;;;;5034653;28;20170;-82
2021/12/17 15:10:03;;;;;;;26.05;13.35;;;9.30;99.90;;;;;;5034881;28;20228;-83
2021/12/17 15:14:58;;;;;;;20.08;11.90;;;9.30;99.90;;;;;;5033933;28;20190;-82
2021/12/17 15:17:24;;;;;;;22.50;13.90;;;9.30;99.90;;;;;;5033780;28;20181;-83
2021/12/17 15:19:49;;;;;;;17.97;11.57;;;9.30;99.90;;;;;;5031891;28;20596;-82
2021/12/17 15:22:15;;;;;;;20.80;12.10;;;9.20;99.90;;;;;;5033436;28;20268;-82
2021/12/17 15:24:41;;;;;;;19.50;12.80;;;9.20;99.90;;;;;;5033603;28;20232;-82
2021/12/17 15:27:07;;;;;;;16.20;12.27;;;9.20;99.90;;;;;;5033708;28;20176;-82
2021/12/17 15:29:33;;;;;;;17.97;13.73;;;9.20;99.90;;;;;;5033330;28;20893;-82
2021/12/17 15:31:58;;;;;;;15.60;10.13;;;9.10;99.90;;;;;;5033387;28;20204;-82
2021/12/17 15:34:25;;;;;;;13.77;9.80;;;9.10;99.90;;;;;;5033280;28;20980;-81
2021/12/17 15:36:51;;;;;;;15.70;10.63;;;9.10;99.90;;;;;;5032180;28;20204;-81
2021/12/17 15:39:16;;;;;;;16.77;10.48;;;9.10;99.90;;;;;;5031871;28;20209;-81
2021/12/17 15:41:42;;;;;;;16.73;11.43;;;9.10;99.90;;;;;;5031764;28;20824;-82
2021/12/17 15:44:11;;;;;;;14.73;11.07;;;9.20;99.90;;;;;;5032178;28;20208;-83
2021/12/17 15:46:38;;;;;;;13.60;9.88;;;9.20;99.90;;;;;;5033131;28;20281;-83